Time;durP1;ratioP1;P1;durP2;ratioP2;P2;SDS_P1;SDS_P2;PMS_P1;PMS_P2;Temp;Humidity;BMP_temperature;BMP_pressure;BME280_temperature;BME280_humidity;BME280_pressure;Samples;Min_cycle;Max_cycle;Signal;HPM_P1;HPM_P2
2022/06/17 00:01:41;;;;;;;6.80;3.73;;;;;;;19.73;72.75;99326.81;5049840;28;20233;-85
2022/06/17 00:04:08;;;;;;;5.30;3.50;;;;;;;19.70;73.03;99323.75;5049978;28;20588;-84
2022/06/17 00:06:39;;;;;;;6.23;3.80;;;;;;;19.67;72.20;99311.91;5049602;28;20229;-84
2022/06/17 00:09:06;;;;;;;5.17;3.30;;;;;;;19.63;72.59;99308.81;5049605;28;20213;-87
2022/06/17 00:11:34;;;;;;;4.30;3.87;;;;;;;19.63;72.05;99314.00;5049510;28;20247;-87
2022/06/17 00:14:02;;;;;;;3.67;3.20;;;;;;;19.51;72.71;99315.25;5049813;28;20220;-87
2022/06/17 00:16:29;;;;;;;5.03;3.80;;;;;;;19.43;72.72;99310.06;5049521;28;20231;-88
2022/06/17 00:18:56;;;;;;;5.27;3.87;;;;;;;19.43;73.54;99307.47;5049283;28;20684;-85
2022/06/17 00:21:25;;;;;;;6.13;3.50;;;;;;;19.42;72.91;99308.47;5049464;28;20407;-84
2022/06/17 00:23:51;;;;;;;6.40;3.47;;;;;;;19.42;73.12;99296.31;5049380;28;20231;-84
2022/06/17 00:26:18;;;;;;;5.50;3.50;;;;;;;19.41;72.36;99293.88;5049522;28;20232;-84
2022/06/17 00:28:45;;;;;;;4.70;3.30;;;;;;;19.39;73.11;99293.22;5048178;28;20204;-88
2022/06/17 00:31:12;;;;;;;6.00;3.77;;;;;;;19.36;71.61;99291.78;5049218;28;20276;-84
2022/06/17 00:33:39;;;;;;;4.07;3.60;;;;;;;19.31;71.34;99293.22;5049173;28;20209;-87
2022/06/17 00:36:10;;;;;;;4.33;3.40;;;;;;;19.33;71.49;99294.69;5049343;28;20227;-84
2022/06/17 00:38:37;;;;;;;3.50;3.13;;;;;;;19.35;73.16;99294.53;5049131;28;20690;-85
2022/06/17 00:41:16;;;;;;;4.97;3.50;;;;;;;19.31;72.32;99294.03;5049082;28;20243;-87
2022/06/17 00:43:44;;;;;;;5.93;3.30;;;;;;;19.31;72.69;99298.41;5049548;28;20653;-84
2022/06/17 00:46:22;;;;;;;4.17;3.20;;;;;;;19.26;71.11;99298.06;5049148;28;20285;-85
2022/06/17 00:48:59;;;;;;;6.87;3.10;;;;;;;19.15;70.23;99299.22;5049139;28;20219;-87
2022/06/17 00:51:30;;;;;;;4.80;3.20;;;;;;;19.10;71.41;99297.09;5048895;28;20673;-88
2022/06/17 00:54:01;;;;;;;3.63;2.70;;;;;;;19.11;72.09;99298.75;5048976;28;20218;-87
2022/06/17 00:56:31;;;;;;;4.40;3.10;;;;;;;19.04;69.70;99292.56;5049143;28;20624;-85
2022/06/17 00:59:01;;;;;;;4.87;3.20;;;;;;;19.06;70.84;99293.22;5048793;28;20634;-84
2022/06/17 01:01:46;;;;;;;4.97;2.90;;;;;;;19.04;70.25;99292.56;5049011;28;20318;-87
2022/06/17 01:04:15;;;;;;;5.93;3.20;;;;;;;18.96;69.93;99300.31;5049023;28;20581;-87
2022/06/17 01:06:46;;;;;;;3.23;2.93;;;;;;;18.97;71.28;99292.41;5048397;28;20649;-85
2022/06/17 01:12:03;;;;;;;6.67;3.37;;;;;;;18.97;70.15;99294.19;5048683;28;20275;-84
2022/06/17 01:14:30;;;;;;;4.30;3.20;;;;;;;18.99;69.23;99292.22;5048793;28;20578;-84
2022/06/17 01:16:59;;;;;;;4.10;3.07;;;;;;;18.94;69.14;99294.50;5048665;28;20256;-87
2022/06/17 01:19:31;;;;;;;6.73;3.40;;;;;;;18.91;68.85;99297.41;5048374;28;20216;-85
2022/06/17 01:22:08;;;;;;;4.33;3.20;;;;;;;18.89;68.98;99284.59;5048446;28;20292;-85
2022/06/17 01:24:35;;;;;;;5.07;3.10;;;;;;;18.87;68.77;99286.53;5048537;28;20227;-87
2022/06/17 01:27:02;;;;;;;4.00;3.33;;;;;;;18.89;69.49;99283.81;5048675;28;20238;-85
2022/06/17 01:29:29;;;;;;;3.90;2.93;;;;;;;18.88;68.65;99290.78;5048090;28;20249;-85
2022/06/17 01:31:55;;;;;;;5.43;3.00;;;;;;;18.83;68.15;99279.25;5048257;28;20268;-88
2022/06/17 01:34:22;;;;;;;4.07;2.90;;;;;;;18.78;68.98;99288.31;5048582;28;20226;-87
2022/06/17 01:36:50;;;;;;;4.93;3.00;;;;;;;18.76;68.64;99285.09;5048338;28;20246;-87
2022/06/17 01:39:17;;;;;;;8.83;2.97;;;;;;;18.70;68.15;99280.50;5048234;28;20217;-88
2022/06/17 01:41:46;;;;;;;3.50;2.80;;;;;;;18.70;68.34;99284.84;5051244;28;20242;-88
2022/06/17 01:44:16;;;;;;;4.93;2.70;;;;;;;18.62;71.04;99277.88;5051786;28;20289;-88
2022/06/17 01:46:44;;;;;;;4.50;2.73;;;;;;;18.52;70.84;99282.38;5051992;28;20232;-85
2022/06/17 01:49:15;;;;;;;3.20;2.57;;;;;;;18.42;71.38;99281.72;5051682;28;20226;-88
2022/06/17 01:51:46;;;;;;;3.90;3.07;;;;;;;18.31;72.18;99275.81;5051975;28;20678;-89
2022/06/17 01:54:17;;;;;;;3.43;2.90;;;;;;;18.26;71.83;99270.31;5051864;28;20222;-86
2022/06/17 01:56:46;;;;;;;3.43;2.90;;;;;;;18.23;72.65;99265.44;5051749;28;20260;-88
2022/06/17 01:59:17;;;;;;;5.00;2.83;;;;;;;18.22;72.92;99274.19;5051922;28;20221;-86
2022/06/17 02:01:47;;;;;;;4.13;3.10;;;;;;;18.18;72.80;99266.88;5051717;28;20244;-89
2022/06/17 02:04:20;;;;;;;4.17;3.03;;;;;;;18.15;73.61;99270.59;5051707;28;20218;-88
2022/06/17 02:06:52;;;;;;;3.30;2.73;;;;;;;18.12;74.30;99270.88;5051397;28;20234;-85
2022/06/17 02:09:19;;;;;;;4.40;3.07;;;;;;;18.02;73.96;99265.03;5051465;28;20216;-88
2022/06/17 02:11:46;;;;;;;3.33;3.00;;;;;;;17.98;74.71;99261.13;5051524;28;20229;-85
2022/06/17 02:14:13;;;;;;;5.60;2.93;;;;;;;17.97;74.69;99262.09;5051423;28;20608;-89
2022/06/17 02:16:43;;;;;;;4.17;2.93;;;;;;;18.01;75.40;99255.66;5051353;28;20247;-88
2022/06/17 02:19:11;;;;;;;3.90;3.17;;;;;;;17.99;74.95;99260.16;5051309;28;20213;-88
2022/06/17 02:21:42;;;;;;;4.60;2.80;;;;;;;17.95;75.81;99253.66;5051333;28;20318;-88
2022/06/17 02:24:11;;;;;;;4.23;3.00;;;;;;;17.85;76.10;99257.16;5051357;28;20217;-88
2022/06/17 02:26:40;;;;;;;4.93;3.40;;;;;;;17.80;76.69;99262.00;5051310;28;20234;-88
2022/06/17 02:29:12;;;;;;;3.80;3.30;;;;;;;17.79;77.42;99260.38;5051058;28;20304;-85
2022/06/17 02:31:41;;;;;;;5.50;3.50;;;;;;;17.80;78.29;99256.84;5051097;28;20355;-85
2022/06/17 02:34:10;;;;;;;4.57;3.40;;;;;;;17.79;78.31;99260.38;5051044;28;20213;-85
2022/06/17 02:36:44;;;;;;;4.13;3.40;;;;;;;17.82;78.72;99264.44;5051188;28;20241;-89
2022/06/17 02:39:11;;;;;;;5.93;3.80;;;;;;;17.78;79.32;99263.13;5051019;28;20273;-88
2022/06/17 02:41:39;;;;;;;6.33;3.70;;;;;;;17.78;79.13;99263.94;5051032;28;20243;-85
2022/06/17 02:44:17;;;;;;;3.67;3.27;;;;;;;17.73;79.80;99260.94;5051201;28;20660;-89
2022/06/17 02:46:44;;;;;;;4.97;3.80;;;;;;;17.72;80.15;99256.75;5050877;28;20245;-86
2022/06/17 02:49:16;;;;;;;4.40;3.77;;;;;;;17.74;80.51;99257.41;5050833;28;20214;-86
2022/06/17 02:51:44;;;;;;;5.03;3.77;;;;;;;17.75;80.77;99261.63;5049753;28;20249;-88
2022/06/17 02:54:15;;;;;;;6.03;3.87;;;;;;;17.77;80.86;99261.44;5050803;28;20442;-86
2022/06/17 02:56:44;;;;;;;5.47;3.50;;;;;;;17.76;80.78;99265.00;5051147;28;20272;-86
2022/06/17 02:59:16;;;;;;;4.73;3.60;;;;;;;17.76;81.07;99259.84;5050668;28;20220;-86
2022/06/17 03:01:44;;;;;;;6.50;3.87;;;;;;;17.78;81.32;99256.16;5050525;28;20241;-88
2022/06/17 03:04:14;;;;;;;5.57;4.10;;;;;;;17.80;81.52;99259.44;5050598;28;20283;-86
2022/06/17 03:06:43;;;;;;;4.60;3.77;;;;;;;17.83;81.99;99261.72;5050989;28;20233;-88
2022/06/17 03:09:20;;;;;;;4.50;3.83;;;;;;;17.85;81.79;99264.13;5050582;28;20213;-86
2022/06/17 03:11:50;;;;;;;5.27;3.57;;;;;;;17.85;81.97;99259.75;5050160;28;20233;-88
2022/06/17 03:14:18;;;;;;;6.13;3.60;;;;;;;17.85;81.74;99264.94;5050422;28;20212;-88
2022/06/17 03:16:44;;;;;;;5.60;3.90;;;;;;;17.88;81.54;99267.22;5050271;28;20269;-88
2022/06/17 03:19:11;;;;;;;4.67;3.70;;;;;;;17.94;81.90;99264.97;5050282;28;20215;-88
2022/06/17 03:21:38;;;;;;;6.07;3.80;;;;;;;17.96;81.82;99265.66;5050748;28;20251;-88
2022/06/17 03:24:12;;;;;;;5.70;3.70;;;;;;;17.94;82.16;99267.56;5050457;28;20225;-87
2022/06/17 03:26:49;;;;;;;6.53;4.20;;;;;;;17.95;82.47;99271.75;5050169;28;20235;-85
2022/06/17 03:29:18;;;;;;;5.20;4.10;;;;;;;17.99;82.61;99270.50;5050016;28;20213;-85
2022/06/17 03:31:49;;;;;;;6.17;4.13;;;;;;;18.00;82.45;99267.75;5050265;28;20236;-88
2022/06/17 03:34:19;;;;;;;7.13;4.00;;;;;;;18.04;82.72;99268.28;5050125;28;20644;-89
2022/06/17 03:36:52;;;;;;;4.17;3.70;;;;;;;18.05;82.41;99275.88;5050117;28;20240;-89
2022/06/17 03:39:23;;;;;;;6.70;4.20;;;;;;;18.08;82.26;99279.94;5050217;28;20212;-85
2022/06/17 03:41:54;;;;;;;6.10;3.90;;;;;;;18.12;82.45;99281.22;5050304;28;20240;-88
2022/06/17 03:44:25;;;;;;;5.57;4.30;;;;;;;18.17;82.64;99279.00;5050027;28;20210;-85
2022/06/17 03:46:56;;;;;;;6.90;4.30;;;;;;;18.19;82.68;99279.66;5050123;28;20238;-85
2022/06/17 03:49:28;;;;;;;6.77;3.70;;;;;;;18.21;82.29;99274.31;5049991;28;20733;-86
2022/06/17 03:52:00;;;;;;;4.97;4.00;;;;;;;18.25;81.93;99284.22;5049677;28;20298;-89
2022/06/17 03:54:27;;;;;;;4.17;3.73;;;;;;;18.30;82.03;99287.16;5050105;28;20394;-86
2022/06/17 03:56:53;;;;;;;5.90;4.10;;;;;;;18.37;82.19;99281.34;5049614;28;20236;-86
2022/06/17 03:59:25;;;;;;;4.80;3.83;;;;;;;18.43;81.23;99283.31;5049648;28;20217;-86
2022/06/17 04:01:56;;;;;;;5.60;3.80;;;;;;;18.53;81.10;99289.19;5050099;28;20236;-88
2022/06/17 04:04:26;;;;;;;10.57;4.17;;;;;;;18.58;81.01;99280.94;5049634;28;20688;-85
2022/06/17 04:06:55;;;;;;;4.67;3.80;;;;;;;18.64;81.18;99281.09;5049569;28;20239;-86
2022/06/17 04:09:24;;;;;;;6.40;4.23;;;;;;;18.64;83.11;99286.28;5049644;28;20213;-85
2022/06/17 04:11:54;;;;;;;6.70;4.20;;;;;;;18.71;82.44;99282.13;5049282;28;20288;-86
2022/06/17 04:14:25;;;;;;;9.17;4.23;;;;;;;18.82;81.86;99287.97;5049646;28;20683;-88
2022/06/17 04:16:59;;;;;;;6.80;4.20;;;;;;;18.91;81.84;99287.06;5049509;28;20250;-85
2022/06/17 04:19:27;;;;;;;5.47;4.17;;;;;;;19.01;81.12;99282.53;5049291;28;20214;-85
2022/06/17 04:21:58;;;;;;;5.37;3.70;;;;;;;19.14;80.44;99282.88;5049818;28;20236;-85
2022/06/17 04:24:27;;;;;;;5.33;4.07;;;;;;;19.27;80.13;99289.34;5049426;28;20213;-85
2022/06/17 04:26:59;;;;;;;6.33;3.93;;;;;;;19.41;79.41;99293.88;5049157;28;20231;-88
2022/06/17 04:29:34;;;;;;;5.17;3.80;;;;;;;19.57;79.49;99287.88;5049453;28;20211;-85
2022/06/17 04:32:09;;;;;;;6.80;4.00;;;;;;;19.70;78.68;99292.59;5049286;28;20270;-89
2022/06/17 04:34:36;;;;;;;5.27;3.90;;;;;;;19.90;78.11;99293.88;5049512;28;20208;-89
2022/06/17 04:37:05;;;;;;;5.73;3.77;;;;;;;20.08;78.66;99294.47;5049449;28;20240;-89
2022/06/17 04:39:39;;;;;;;6.47;4.03;;;;;;;20.29;76.53;99293.91;5049172;28;20210;-89
2022/06/17 04:42:07;;;;;;;7.43;4.00;;;;;;;20.50;76.57;99295.91;5049319;28;20233;-90
2022/06/17 04:44:34;;;;;;;5.43;3.90;;;;;;;20.69;75.06;99299.13;5048967;28;20646;-89
2022/06/17 04:47:04;;;;;;;5.20;4.00;;;;;;;20.92;74.11;99299.94;5049137;28;20241;-86
2022/06/17 04:49:37;;;;;;;6.60;4.03;;;;;;;21.14;75.38;99292.31;5048949;28;20222;-88
2022/06/17 04:52:06;;;;;;;6.07;4.37;;;;;;;21.36;73.78;99295.91;5049066;28;20238;-87
2022/06/17 04:54:33;;;;;;;5.87;4.13;;;;;;;21.58;71.84;99304.66;5048845;28;20221;-87
2022/06/17 04:57:02;;;;;;;7.67;4.73;;;;;;;21.85;73.39;99296.28;5049157;28;20242;-89
2022/06/17 04:59:34;;;;;;;7.40;4.60;;;;;;;22.10;69.96;99306.44;5048911;28;20221;-87
2022/06/17 05:02:02;;;;;;;5.67;4.40;;;;;;;22.40;70.20;99314.25;5058036;28;20256;-87
2022/06/17 05:04:29;;;;;;;6.57;4.53;;;;;;;22.60;68.27;99310.09;5054881;28;20721;-86
2022/06/17 05:06:55;;;;;;;5.07;4.40;;;;;;;22.86;66.88;99303.56;5048742;28;20698;-89
2022/06/17 05:09:25;;;;;;;5.38;4.07;;;;;;;23.07;65.59;99311.44;5049010;28;20280;-87
2022/06/17 05:11:56;;;;;;;4.97;3.95;;;;;;;23.30;63.53;99305.19;5049048;28;20235;-87
2022/06/17 05:14:29;;;;;;;5.97;4.53;;;;;;;23.51;62.10;99297.38;5048490;28;20218;-86
2022/06/17 05:16:58;;;;;;;6.30;4.15;;;;;;;23.76;64.55;99299.56;5049017;28;20238;-89
2022/06/17 05:19:24;;;;;;;6.28;4.70;;;;;;;23.94;61.16;99302.50;5048680;28;20633;-90
2022/06/17 05:21:51;;;;;;;5.88;4.40;;;;;;;24.11;61.25;99295.94;5048626;28;20675;-86
2022/06/17 05:24:17;;;;;;;6.20;4.25;;;;;;;24.29;61.65;99292.00;5048460;28;20203;-87
2022/06/17 05:26:43;;;;;;;6.10;4.43;;;;;;;24.46;60.46;99290.69;5048395;28;20235;-90
2022/06/17 05:29:09;;;;;;;4.65;4.05;;;;;;;24.66;61.18;99295.19;5048544;28;20716;-90
2022/06/17 05:31:36;;;;;;;5.22;4.18;;;;;;;24.77;58.59;99289.41;5048218;28;20617;-90
2022/06/17 05:34:03;;;;;;;4.78;4.28;;;;;;;24.90;57.97;99286.81;5048714;28;20230;-87
2022/06/17 05:36:30;;;;;;;7.78;4.55;;;;;;;24.88;59.73;99288.03;5048594;28;20243;-87
2022/06/17 05:38:56;;;;;;;5.60;4.28;;;;;;;24.97;58.77;99292.84;5048308;28;20264;-90
2022/06/17 05:41:24;;;;;;;6.30;4.18;;;;;;;25.07;59.20;99295.91;5048631;28;20238;-90
2022/06/17 05:43:51;;;;;;;5.50;4.45;;;;;;;25.20;56.82;99296.94;5048299;28;20211;-87
2022/06/17 05:46:18;;;;;;;6.53;4.78;;;;;;;25.25;54.98;99297.16;5048576;28;20720;-87
2022/06/17 05:48:44;;;;;;;4.97;4.30;;;;;;;25.27;55.17;99290.69;5047967;28;20215;-87
2022/06/17 05:51:11;;;;;;;7.43;4.40;;;;;;;25.41;56.57;99283.66;5048336;28;20725;-87
2022/06/17 05:53:37;;;;;;;5.72;4.57;;;;;;;25.47;54.62;99282.03;5048390;28;20219;-91
2022/06/17 05:56:04;;;;;;;7.65;4.45;;;;;;;25.52;56.09;99280.41;5048398;28;20234;-87
2022/06/17 05:58:31;;;;;;;5.45;4.50;;;;;;;25.53;54.73;99287.25;5048099;28;20226;-87
2022/06/17 06:00:57;;;;;;;6.95;4.57;;;;;;;25.46;54.50;99286.47;5048481;28;20606;-87
2022/06/17 06:03:27;;;;;;;5.43;4.40;;;;;;;25.59;57.49;99279.59;5048384;28;20585;-90
2022/06/17 06:05:54;;;;;;;5.35;4.60;;;;;;;25.71;52.63;99283.19;5048146;28;20246;-91
2022/06/17 06:08:21;;;;;;;5.35;4.80;;;;;;;25.88;53.00;99281.78;5048223;28;20603;-86
2022/06/17 06:10:47;;;;;;;8.23;5.05;;;;;;;26.06;53.19;99290.81;5047988;28;20255;-89
2022/06/17 06:13:16;;;;;;;6.47;4.47;;;;;;;26.26;57.24;99286.31;5048011;28;20223;-90
2022/06/17 06:15:44;;;;;;;6.03;4.10;;;;;;;26.38;52.05;99289.06;5047881;28;20231;-90
2022/06/17 06:18:12;;;;;;;7.72;4.90;;;;;;;26.63;51.94;99289.19;5048268;28;20215;-87
2022/06/17 06:20:39;;;;;;;5.38;4.55;;;;;;;26.62;51.26;99279.72;5047922;28;20635;-87
2022/06/17 06:23:05;;;;;;;5.32;4.70;;;;;;;26.57;51.67;99282.16;5048162;28;20238;-87
2022/06/17 06:25:33;;;;;;;5.93;4.72;;;;;;;26.65;51.56;99284.56;5047820;28;20705;-87
2022/06/17 06:28:07;;;;;;;7.22;4.68;;;;;;;26.95;52.82;99279.50;5049939;28;20207;-89
2022/06/17 06:30:33;;;;;;;5.35;4.55;;;;;;;27.20;50.92;99281.38;5050999;28;20238;-90
2022/06/17 06:33:02;;;;;;;6.75;4.53;;;;;;;27.26;54.45;99291.03;5051280;28;20302;-86
2022/06/17 06:35:30;;;;;;;6.75;4.95;;;;;;;27.38;50.78;99293.78;5051083;28;20717;-87
2022/06/17 06:37:56;;;;;;;7.57;4.57;;;;;;;27.61;52.20;99287.91;5051094;28;20231;-90
2022/06/17 06:40:23;;;;;;;5.32;4.80;;;;;;;27.67;51.01;99282.59;5051417;28;20251;-87
2022/06/17 06:42:51;;;;;;;4.93;4.43;;;;;;;27.84;50.45;99292.53;5051006;28;20219;-90
2022/06/17 06:45:22;;;;;;;6.45;5.10;;;;;;;28.04;51.82;99290.50;5050807;28;20239;-90
2022/06/17 06:47:49;;;;;;;7.05;4.97;;;;;;;28.16;54.40;99285.34;5050997;28;20215;-87
2022/06/17 06:50:18;;;;;;;6.35;4.80;;;;;;;28.39;48.89;99282.81;5050765;28;20242;-87
2022/06/17 06:52:44;;;;;;;5.93;4.97;;;;;;;28.69;52.39;99289.13;5050932;28;20211;-87
2022/06/17 06:55:11;;;;;;;5.13;4.65;;;;;;;28.91;49.26;99282.31;5050788;28;20215;-87
2022/06/17 06:57:44;;;;;;;7.13;5.38;;;;;;;28.93;50.26;99280.25;5050930;28;20614;-90
2022/06/17 07:00:15;;;;;;;6.35;5.35;;;;;;;29.11;52.26;99282.81;5051252;28;20211;-86
2022/06/17 07:02:41;;;;;;;5.90;5.20;;;;;;;29.15;48.31;99283.19;5050967;28;20246;-88
2022/06/17 07:05:08;;;;;;;5.80;4.90;;;;;;;29.04;46.59;99287.41;5050670;28;20212;-91
2022/06/17 07:07:34;;;;;;;6.63;5.13;;;;;;;29.09;47.40;99284.91;5050811;28;20211;-91
2022/06/17 07:10:00;;;;;;;7.07;5.25;;;;;;;29.09;47.00;99274.38;5050655;28;20280;-91
2022/06/17 07:12:27;;;;;;;7.40;5.20;;;;;;;29.11;50.47;99282.81;5051021;28;20215;-86
2022/06/17 07:14:53;;;;;;;6.93;5.10;;;;;;;29.43;48.77;99284.34;5050142;28;20219;-89
2022/06/17 07:17:20;;;;;;;8.35;5.45;;;;;;;29.63;49.28;99287.47;5050793;28;20212;-90
2022/06/17 07:19:46;;;;;;;7.53;5.45;;;;;;;29.74;45.20;99293.78;5050286;28;20674;-87
2022/06/17 07:22:12;;;;;;;6.07;5.47;;;;;;;29.89;48.93;99282.75;5050558;28;20666;-86
2022/06/17 07:24:38;;;;;;;7.03;5.30;;;;;;;30.17;49.87;99285.44;5050372;28;20767;-89
2022/06/17 07:27:05;;;;;;;7.78;5.47;;;;;;;30.27;44.69;99282.22;5050318;28;20235;-91
2022/06/17 07:29:32;;;;;;;5.88;5.28;;;;;;;30.14;46.37;99280.63;5050391;28;20298;-87
2022/06/17 07:32:00;;;;;;;6.60;5.15;;;;;;;29.99;43.56;99283.75;5049969;28;20609;-87
2022/06/17 07:34:27;;;;;;;6.20;5.05;;;;;;;29.93;44.75;99289.97;5050255;28;20334;-90
2022/06/17 07:39:58;;;;;;;6.97;5.72;;;;;;;29.75;46.45;99284.81;5049717;28;20205;-87
2022/06/17 07:42:26;;;;;;;7.10;5.10;;;;;;;29.97;46.87;99288.47;5050238;28;20619;-88
2022/06/17 07:44:53;;;;;;;7.43;4.97;;;;;;;30.31;45.37;99290.44;5050236;28;20203;-87
2022/06/17 07:47:22;;;;;;;6.63;5.30;;;;;;;30.65;44.62;99291.34;5050269;28;20215;-87
2022/06/17 07:49:49;;;;;;;5.93;5.32;;;;;;;30.83;43.18;99291.16;5049967;28;20215;-90
2022/06/17 07:52:16;;;;;;;6.00;5.40;;;;;;;30.61;42.99;99290.22;5050175;28;20235;-90
2022/06/17 07:54:42;;;;;;;6.70;5.28;;;;;;;30.57;42.24;99289.88;5049813;28;20207;-90
2022/06/17 07:57:10;;;;;;;6.70;5.10;;;;;;;30.90;41.70;99283.91;5049987;28;20292;-90
2022/06/17 07:59:36;;;;;;;6.03;5.30;;;;;;;31.10;42.51;99287.91;5049763;28;20214;-88
2022/06/17 08:02:03;;;;;;;6.55;5.80;;;;;;;31.13;45.07;99287.44;5049989;28;20784;-87
2022/06/17 08:04:29;;;;;;;7.25;5.18;;;;;;;31.33;41.22;99286.94;5049633;28;20222;-87
2022/06/17 08:06:56;;;;;;;5.65;5.05;;;;;;;31.48;40.98;99283.75;5049670;28;20285;-88
2022/06/17 08:09:23;;;;;;;5.78;5.28;;;;;;;31.38;38.87;99278.31;5049801;28;20253;-87
2022/06/17 08:11:50;;;;;;;7.68;5.45;;;;;;;31.58;41.75;99283.88;5049699;28;20236;-87
2022/06/17 08:14:17;;;;;;;6.00;5.40;;;;;;;31.80;42.30;99281.28;5049756;28;20581;-91
2022/06/17 08:16:43;;;;;;;6.20;5.25;;;;;;;31.82;38.99;99273.09;5049624;28;20621;-91
2022/06/17 08:19:09;;;;;;;6.75;5.28;;;;;;;31.99;37.38;99273.84;5049619;28;20216;-91
2022/06/17 08:21:36;;;;;;;5.82;5.20;;;;;;;31.89;35.78;99273.72;5049755;28;20235;-89
2022/06/17 08:24:03;;;;;;;5.88;5.25;;;;;;;32.05;36.99;99283.44;5049954;28;20677;-86
2022/06/17 08:26:30;;;;;;;8.93;5.57;;;;;;;32.47;39.84;99288.19;5049252;28;20227;-87
2022/06/17 08:28:56;;;;;;;12.60;5.50;;;;;;;32.62;36.20;99280.38;5049424;28;20216;-88
2022/06/17 08:31:22;;;;;;;5.55;4.97;;;;;;;32.89;36.43;99276.91;5049398;28;20619;-87
2022/06/17 08:33:48;;;;;;;7.05;5.60;;;;;;;33.13;37.35;99277.38;5049149;28;20215;-87
2022/06/17 08:36:18;;;;;;;5.60;5.10;;;;;;;33.16;37.04;99276.06;5049530;28;20223;-89
2022/06/17 08:38:48;;;;;;;6.15;5.55;;;;;;;33.18;40.52;99284.56;5049135;28;20273;-87
2022/06/17 08:41:25;;;;;;;7.82;5.68;;;;;;;33.31;39.15;99274.34;5049224;28;20250;-85
2022/06/17 08:44:05;;;;;;;5.80;5.20;;;;;;;33.33;38.49;99266.91;5049363;28;20731;-88
2022/06/17 08:46:46;;;;;;;5.75;5.13;;;;;;;33.23;36.68;99266.06;5049378;28;20256;-91
2022/06/17 08:49:30;;;;;;;6.32;5.35;;;;;;;33.39;36.86;99259.00;5048893;28;20211;-90
2022/06/17 08:52:17;;;;;;;7.13;5.65;;;;;;;33.50;38.38;99266.75;5049246;28;20467;-89
2022/06/17 08:54:54;;;;;;;6.43;5.53;;;;;;;33.66;41.08;99265.00;5048840;28;20211;-87
2022/06/17 08:57:32;;;;;;;6.97;5.20;;;;;;;33.58;35.69;99266.28;5048944;28;20211;-86
2022/06/17 09:00:08;;;;;;;6.93;5.70;;;;;;;33.52;37.02;99269.97;5049105;28;20211;-88
2022/06/17 09:02:50;;;;;;;7.18;5.90;;;;;;;33.06;34.91;99261.69;5048890;28;20225;-89
2022/06/17 09:05:33;;;;;;;6.18;4.97;;;;;;;33.20;38.44;99255.97;5048941;28;20235;-87
2022/06/17 09:08:11;;;;;;;5.88;5.32;;;;;;;33.49;36.68;99253.75;5048940;28;20277;-87
2022/06/17 09:10:46;;;;;;;5.60;5.05;;;;;;;33.72;36.45;99255.22;5048480;28;20238;-86
2022/06/17 09:13:28;;;;;;;5.55;4.78;;;;;;;34.00;36.48;99246.81;5048854;28;20243;-87
2022/06/17 09:16:01;;;;;;;5.38;4.88;;;;;;;34.16;36.65;99255.66;5048755;28;20235;-90
2022/06/17 09:18:30;;;;;;;5.63;5.00;;;;;;;34.25;35.95;99255.94;5048843;28;20222;-88
2022/06/17 09:21:04;;;;;;;6.68;5.00;;;;;;;34.24;33.76;99259.69;5048603;28;20268;-91
2022/06/17 09:23:35;;;;;;;6.80;5.30;;;;;;;34.16;35.64;99257.53;5048808;28;20740;-89
2022/06/17 09:26:06;;;;;;;8.88;5.43;;;;;;;34.25;36.66;99253.28;5048889;28;20482;-87
2022/06/17 09:28:39;;;;;;;6.93;5.22;;;;;;;34.43;36.62;99252.78;5048975;28;20713;-87
2022/06/17 09:31:11;;;;;;;6.80;5.00;;;;;;;34.60;36.53;99257.09;5050212;28;20877;-89
2022/06/17 09:33:42;;;;;;;5.80;4.97;;;;;;;34.48;32.40;99244.84;5056628;28;20233;-86
2022/06/17 09:36:13;;;;;;;8.80;5.05;;;;;;;34.59;33.39;99250.16;5050962;28;20235;-87
2022/06/17 09:38:47;;;;;;;7.10;5.20;;;;;;;34.85;34.19;99253.63;5048417;28;20212;-88
2022/06/17 09:41:20;;;;;;;8.05;5.35;;;;;;;34.88;33.83;99248.59;5048215;28;20233;-86
2022/06/17 09:43:52;;;;;;;5.72;5.22;;;;;;;34.75;32.82;99254.44;5048416;28;20218;-86
2022/06/17 09:46:24;;;;;;;5.68;5.18;;;;;;;34.69;36.09;99239.56;5048270;28;20235;-87
2022/06/17 09:48:57;;;;;;;5.68;5.07;;;;;;;34.81;35.43;99242.75;5048346;28;20265;-86
2022/06/17 09:51:30;;;;;;;6.25;5.28;;;;;;;34.32;32.65;99235.25;5047986;28;20239;-86
2022/06/17 09:54:01;;;;;;;5.63;5.10;;;;;;;34.43;36.28;99236.84;5048450;28;20218;-88
2022/06/17 09:56:32;;;;;;;6.43;5.50;;;;;;;34.55;34.34;99238.50;5048099;28;20239;-86
2022/06/17 09:59:07;;;;;;;5.93;5.38;;;;;;;34.57;35.83;99239.81;5048273;28;20215;-88
2022/06/17 10:01:33;;;;;;;5.80;5.20;;;;;;;34.79;35.92;99236.91;5049572;28;20234;-83
2022/06/17 10:04:01;;;;;;;8.27;5.50;;;;;;;34.88;35.89;99237.19;5051717;28;20637;-84
2022/06/17 10:06:37;;;;;;;5.88;5.38;;;;;;;35.15;34.46;99228.94;5051342;28;20245;-84
2022/06/17 10:09:27;;;;;;;7.68;5.88;;;;;;;35.32;33.22;99232.06;5051711;28;20218;-87
2022/06/17 10:12:01;;;;;;;7.70;6.00;;;;;;;34.86;32.57;99229.47;5051401;28;20743;-84
2022/06/17 10:14:42;;;;;;;7.15;5.88;;;;;;;35.13;34.66;99228.38;5051417;28;20215;-88
2022/06/17 10:20:15;;;;;;;6.07;5.10;;;;;;;34.90;32.33;99224.41;5051541;28;20273;-86
2022/06/17 10:22:49;;;;;;;6.20;5.60;;;;;;;35.24;33.10;99218.53;5051230;28;20215;-84
2022/06/17 10:25:32;;;;;;;6.65;5.57;;;;;;;35.55;35.85;99224.59;5051652;28;20733;-86
2022/06/17 10:28:16;;;;;;;5.63;5.13;;;;;;;35.65;31.86;99223.75;5051371;28;20250;-84
2022/06/17 10:30:49;;;;;;;5.85;5.28;;;;;;;35.23;32.82;99225.72;5051124;28;20289;-84
2022/06/17 10:33:17;;;;;;;6.28;5.30;;;;;;;35.52;32.38;99219.75;5051331;28;20204;-85
2022/06/17 10:35:46;;;;;;;7.85;5.18;;;;;;;35.71;32.24;99223.44;5050913;28;20231;-84
2022/06/17 10:38:20;;;;;;;5.60;4.97;;;;;;;35.39;33.18;99210.50;5051134;28;20211;-85
2022/06/17 10:40:46;;;;;;;6.70;4.82;;;;;;;35.19;31.11;99210.56;5050866;28;20235;-87
2022/06/17 10:43:17;;;;;;;5.90;5.30;;;;;;;35.42;31.52;99207.31;5051245;28;20219;-84
2022/06/17 10:45:44;;;;;;;5.90;4.97;;;;;;;35.37;31.24;99207.31;5050862;28;20678;-84
2022/06/17 10:48:31;;;;;;;5.82;5.30;;;;;;;35.29;33.16;99206.03;5051031;28;20242;-88
2022/06/17 10:50:59;;;;;;;5.43;4.95;;;;;;;35.28;30.75;99207.06;5050553;28;20252;-87
2022/06/17 10:53:29;;;;;;;6.53;4.90;;;;;;;35.41;31.96;99196.97;5051244;28;20792;-86
2022/06/17 10:55:58;;;;;;;5.85;5.32;;;;;;;35.41;35.94;99196.97;5050651;28;20262;-84
2022/06/17 10:58:27;;;;;;;6.70;5.10;;;;;;;35.14;31.95;99193.59;5050783;28;20381;-85
2022/06/17 11:00:57;;;;;;;7.68;5.20;;;;;;;34.58;32.22;99190.16;5050626;28;20246;-84
2022/06/17 11:03:30;;;;;;;6.75;5.20;;;;;;;34.43;34.16;99189.06;5050651;28;20215;-85
2022/06/17 11:06:01;;;;;;;9.27;5.15;;;;;;;34.60;35.67;99188.06;5050695;28;20239;-85
2022/06/17 11:08:32;;;;;;;6.85;5.50;;;;;;;34.62;37.34;99192.03;5050718;28;20686;-88
2022/06/17 11:12:02;;;;;;;6.07;5.00;;;;;;;34.38;32.82;99191.72;5050297;28;20235;-84
2022/06/17 11:13:51;;;;;;;6.20;5.10;;;;;;;34.41;34.49;99191.22;5050157;28;20557;-84
2022/06/17 11:16:20;;;;;;;6.93;5.57;;;;;;;34.10;31.40;99194.88;5050491;28;20340;-87
2022/06/17 11:18:54;;;;;;;7.97;5.60;;;;;;;34.00;33.33;99191.09;5050470;28;20211;-88
2022/06/17 11:21:24;;;;;;;6.07;5.32;;;;;;;33.92;34.40;99186.34;5050422;28;20245;-84
2022/06/17 11:23:53;;;;;;;6.07;5.10;;;;;;;33.91;30.22;99187.38;5050446;28;20207;-84
2022/06/17 11:26:22;;;;;;;7.70;5.85;;;;;;;33.08;36.16;99180.13;5050397;28;20608;-87
2022/06/17 11:28:50;;;;;;;7.35;5.60;;;;;;;33.19;33.23;99174.88;5050157;28;20208;-85
2022/06/17 11:31:35;;;;;;;6.93;6.03;;;;;;;33.17;34.26;99171.69;5050135;28;20246;-86
2022/06/17 11:34:12;;;;;;;6.63;5.70;;;;;;;33.21;32.09;99165.59;5050452;28;20207;-88
2022/06/17 11:36:57;;;;;;;7.38;6.20;;;;;;;33.22;34.68;99169.06;5050161;28;20685;-87
2022/06/17 11:39:33;;;;;;;6.78;6.18;;;;;;;33.40;33.73;99165.97;5050288;28;20934;-88
2022/06/17 11:42:02;;;;;;;7.53;6.00;;;;;;;33.62;38.27;99162.38;5050259;28;20235;-87
2022/06/17 11:44:29;;;;;;;8.52;6.53;;;;;;;33.70;32.10;99157.34;5050393;28;20200;-88
2022/06/17 11:46:59;;;;;;;6.40;5.80;;;;;;;33.59;34.58;99156.50;5049974;28;20238;-84
2022/06/17 11:49:26;;;;;;;8.48;6.35;;;;;;;33.54;33.79;99159.16;5049956;28;20211;-89
2022/06/17 11:51:58;;;;;;;6.40;5.80;;;;;;;33.42;32.69;99157.75;5050064;28;20242;-85
2022/06/17 11:54:30;;;;;;;6.57;5.88;;;;;;;33.14;31.94;99168.50;5050058;28;20223;-85
2022/06/17 11:56:58;;;;;;;7.43;6.15;;;;;;;33.05;35.54;99159.44;5050060;28;20781;-91